Time;durP1;ratioP1;P1;durP2;ratioP2;P2;SDS_P1;SDS_P2;PMS_P1;PMS_P2;Temp;Humidity;BMP_temperature;BMP_pressure;BME280_temperature;BME280_humidity;BME280_pressure;Samples;Min_cycle;Max_cycle;Signal;HPM_P1;HPM_P2
2022/06/25 00:01:13;;;;;;;4.30;3.60;;;;;;;21.98;56.57;100779.09;4898829;28;118651;-70
2022/06/25 00:03:41;;;;;;;4.85;4.10;;;;;;;21.96;56.53;100781.97;4893546;28;123946;-70
2022/06/25 00:06:08;;;;;;;6.15;3.97;;;;;;;21.94;56.53;100783.97;4889841;28;125087;-70
2022/06/25 00:08:37;;;;;;;6.70;4.30;;;;;;;21.93;56.65;100787.66;4899895;28;119590;-69
2022/06/25 00:11:05;;;;;;;5.22;3.92;;;;;;;21.92;56.77;100791.31;4899584;28;119921;-69
2022/06/25 00:13:34;;;;;;;5.60;4.35;;;;;;;21.92;56.70;100791.31;4901838;28;124145;-69
2022/06/25 00:16:01;;;;;;;4.40;3.75;;;;;;;21.88;56.77;100789.91;4896593;28;123731;-69
2022/06/25 00:18:28;;;;;;;4.35;3.80;;;;;;;21.86;56.75;100791.91;4898744;28;118846;-69
2022/06/25 00:20:56;;;;;;;6.30;4.20;;;;;;;21.85;56.89;100790.22;4897197;28;120766;-69
2022/06/25 00:23:23;;;;;;;5.65;3.60;;;;;;;21.84;56.80;100787.66;4898123;28;124880;-68
2022/06/25 00:25:50;;;;;;;3.92;3.53;;;;;;;21.82;56.90;100790.50;4901722;28;124050;-69
2022/06/25 00:28:17;;;;;;;6.18;3.47;;;;;;;21.81;56.88;100794.19;4895581;28;119204;-69
2022/06/25 00:30:44;;;;;;;4.25;3.50;;;;;;;21.80;56.78;100795.19;4899630;28;118662;-69
2022/06/25 00:33:11;;;;;;;5.32;3.05;;;;;;;21.78;56.81;100794.47;4893484;28;124618;-69
2022/06/25 00:35:38;;;;;;;3.72;2.97;;;;;;;21.75;56.94;100795.59;4895553;28;124376;-70
2022/06/25 00:38:05;;;;;;;5.13;3.15;;;;;;;21.74;56.86;100793.06;4918771;28;118146;-69
2022/06/25 00:40:32;;;;;;;4.25;3.05;;;;;;;21.73;56.93;100794.06;4902442;28;119125;-68
2022/06/25 00:43:00;;;;;;;4.38;2.97;;;;;;;21.71;56.78;100798.75;4895312;28;124201;-69
2022/06/25 00:45:27;;;;;;;3.67;2.70;;;;;;;21.70;56.82;100802.41;4893913;28;123990;-69
2022/06/25 00:47:54;;;;;;;2.88;2.58;;;;;;;21.67;56.90;100798.16;4893954;28;119610;-68
2022/06/25 00:50:21;;;;;;;3.13;2.38;;;;;;;21.65;56.74;100804.72;4903691;28;120001;-68
2022/06/25 00:52:55;;;;;;;3.55;2.08;;;;;;;21.63;56.84;100812.09;4904807;28;123289;-68
2022/06/25 00:55:28;;;;;;;3.15;2.08;;;;;;;21.62;56.82;100813.06;4902961;28;123079;-68
2022/06/25 00:57:59;;;;;;;2.58;2.05;;;;;;;21.61;56.75;100808.69;4904045;28;119216;-69
2022/06/25 01:00:28;;;;;;;3.08;2.03;;;;;;;21.57;56.69;100808.97;4899390;28;119987;-70
2022/06/25 01:02:55;;;;;;;3.22;1.92;;;;;;;21.55;56.81;100805.56;4894724;28;124145;-70
2022/06/25 01:05:22;;;;;;;3.15;1.90;;;;;;;21.55;56.79;100815.50;4894808;28;124153;-70
2022/06/25 01:07:50;;;;;;;4.60;2.30;;;;;;;21.54;56.80;100825.41;4896871;28;118391;-70
2022/06/25 01:10:17;;;;;;;2.95;1.90;;;;;;;21.53;56.63;100823.72;4900622;28;118768;-70
2022/06/25 01:12:44;;;;;;;3.03;2.22;;;;;;;21.51;56.90;100825.69;4898958;28;124139;-70
2022/06/25 01:15:18;;;;;;;4.18;2.28;;;;;;;21.49;56.93;100827.69;4904928;28;122857;-70
2022/06/25 01:17:49;;;;;;;2.78;2.30;;;;;;;21.46;56.79;100827.97;4896103;28;119148;-69
2022/06/25 01:20:19;;;;;;;2.50;2.13;;;;;;;21.45;56.72;100836.19;4922539;28;118180;-69
2022/06/25 01:22:47;;;;;;;2.58;2.05;;;;;;;21.43;56.91;100830.03;4906078;28;123333;-69
2022/06/25 01:25:15;;;;;;;3.90;2.05;;;;;;;21.41;56.94;100830.19;4894647;28;123992;-70
2022/06/25 01:27:43;;;;;;;4.80;2.30;;;;;;;21.41;56.79;100835.56;4904134;28;118947;-70
2022/06/25 01:30:11;;;;;;;6.47;2.42;;;;;;;21.40;56.72;100847.34;4860031;28;1168868;-70
2022/06/25 01:32:39;;;;;;;4.68;2.00;;;;;;;21.37;56.88;100840.38;4902295;28;123994;-70
2022/06/25 01:35:08;;;;;;;4.07;2.13;;;;;;;21.36;56.74;100827.03;4893335;28;123885;-70
2022/06/25 01:37:36;;;;;;;3.20;2.35;;;;;;;21.35;56.90;100836.97;4899199;28;118876;-70
2022/06/25 01:40:04;;;;;;;2.67;2.30;;;;;;;21.33;56.73;100843.50;4901369;28;118811;-70
2022/06/25 01:45:17;;;;;;;5.10;2.35;;;;;;;21.27;56.84;100849.47;4901809;28;124272;-70
2022/06/25 01:47:44;;;;;;;3.92;2.92;;;;;;;21.23;56.86;100851.56;4902001;28;120496;-70
2022/06/25 01:50:12;;;;;;;3.45;2.58;;;;;;;21.18;56.89;100846.59;4896262;28;120396;-70
2022/06/25 01:52:40;;;;;;;4.18;2.97;;;;;;;21.16;56.87;100853.97;4920315;28;123192;-70
2022/06/25 01:55:08;;;;;;;3.10;2.78;;;;;;;21.12;56.96;100852.53;4894529;28;123964;-71
2022/06/25 01:57:38;;;;;;;3.97;2.78;;;;;;;21.09;57.02;100863.56;4904612;28;118266;-70
2022/06/25 02:00:09;;;;;;;4.20;3.30;;;;;;;21.05;57.11;100862.16;4906884;28;118220;-70
2022/06/25 02:02:41;;;;;;;5.80;3.40;;;;;;;21.00;57.20;100853.63;4899722;28;124783;-70
2022/06/25 02:05:11;;;;;;;3.50;3.03;;;;;;;20.96;57.31;100862.97;4920456;28;123385;-70
2022/06/25 02:07:38;;;;;;;4.78;3.20;;;;;;;20.92;57.18;100873.16;4895445;28;118594;-70
2022/06/25 02:10:06;;;;;;;4.60;3.30;;;;;;;20.89;57.45;100872.56;4905065;28;119314;-70
2022/06/25 02:12:33;;;;;;;4.35;3.10;;;;;;;20.86;57.37;100879.09;4903977;28;123754;-70
2022/06/25 02:15:01;;;;;;;4.28;3.40;;;;;;;20.83;57.51;100875.81;4900904;28;122805;-70
2022/06/25 02:17:29;;;;;;;3.92;3.10;;;;;;;20.79;57.45;100873.41;4897644;28;119229;-69
2022/06/25 02:19:58;;;;;;;7.97;3.28;;;;;;;20.77;57.67;100880.72;4883896;28;118138;-70
2022/06/25 02:22:26;;;;;;;4.78;3.33;;;;;;;20.76;57.68;100878.19;4905774;28;123322;-70
2022/06/25 02:24:54;;;;;;;5.63;3.53;;;;;;;20.74;57.76;100881.00;4894988;28;124468;-70
2022/06/25 02:27:21;;;;;;;4.05;3.08;;;;;;;20.73;57.84;100879.28;4897399;28;119230;-70
2022/06/25 02:29:48;;;;;;;4.47;3.25;;;;;;;20.73;57.74;100890.06;4899640;28;118707;-70
2022/06/25 02:32:15;;;;;;;3.88;3.13;;;;;;;20.72;57.70;100893.75;4904532;28;122936;-70
2022/06/25 02:34:43;;;;;;;4.18;3.13;;;;;;;20.71;57.81;100891.19;4905347;28;123724;-69
2022/06/25 02:37:10;;;;;;;3.60;2.85;;;;;;;20.69;57.89;100899.41;4887817;28;119365;-69
2022/06/25 02:39:37;;;;;;;3.38;2.92;;;;;;;20.67;57.76;100905.91;4903014;28;119271;-68
2022/06/25 02:42:05;;;;;;;3.72;3.17;;;;;;;20.63;57.91;100910.69;4920743;28;123807;-69
2022/06/25 02:44:32;;;;;;;3.33;3.00;;;;;;;20.63;57.86;100910.69;4895875;28;123970;-69
2022/06/25 02:47:00;;;;;;;4.55;3.50;;;;;;;20.60;58.08;100913.66;4917786;28;118408;-69
2022/06/25 02:49:39;;;;;;;6.78;3.00;;;;;;;20.58;57.74;100923.66;4901503;28;118472;-69
2022/06/25 02:52:06;;;;;;;4.00;2.72;;;;;;;20.55;57.97;100924.78;4907004;28;123965;-70
2022/06/25 02:54:33;;;;;;;4.90;3.30;;;;;;;20.54;58.06;100927.59;4904681;28;123592;-70
2022/06/25 02:59:48;;;;;;;5.43;2.78;;;;;;;20.50;58.16;100931.56;4919419;28;118825;-70
2022/06/25 03:02:15;;;;;;;3.85;2.90;;;;;;;20.48;57.91;100929.00;4902702;28;123118;-71
2022/06/25 03:04:45;;;;;;;4.38;3.05;;;;;;;20.46;57.94;100930.13;4903407;28;123004;-70
2022/06/25 03:07:13;;;;;;;4.35;2.97;;;;;;;20.45;58.19;100923.00;4910095;28;118737;-70
2022/06/25 03:09:40;;;;;;;4.10;3.15;;;;;;;20.43;58.13;100926.66;4894129;28;119217;-70
2022/06/25 03:12:08;;;;;;;3.63;2.75;;;;;;;20.42;58.14;100930.38;4903959;28;123486;-70
2022/06/25 03:14:38;;;;;;;4.47;3.08;;;;;;;20.40;58.09;100926.13;4921486;28;123957;-70
2022/06/25 03:17:06;;;;;;;3.75;3.00;;;;;;;20.38;58.19;100923.53;4904152;28;118820;-70
2022/06/25 03:19:53;;;;;;;4.88;3.30;;;;;;;20.34;58.18;100922.09;4902654;28;120491;-69
2022/06/25 03:22:29;;;;;;;4.45;2.90;;;;;;;20.33;58.10;100925.75;4920685;28;127081;-69
2022/06/25 03:24:56;;;;;;;4.65;3.08;;;;;;;20.31;58.21;100925.03;4925624;28;122641;-69
2022/06/25 03:27:23;;;;;;;3.45;2.80;;;;;;;20.30;58.38;100936.78;4893525;28;120596;-69
2022/06/25 03:29:59;;;;;;;4.30;2.60;;;;;;;20.28;58.24;100927.97;4904204;28;122983;-69
2022/06/25 03:32:26;;;;;;;5.15;3.10;;;;;;;20.27;58.32;100931.69;4906816;28;123038;-70
2022/06/25 03:35:21;;;;;;;4.45;2.80;;;;;;;20.24;58.23;100937.31;4920658;28;123541;-69
2022/06/25 03:38:17;;;;;;;3.75;2.90;;;;;;;20.24;58.35;100931.91;4893714;28;120503;-69
2022/06/25 03:40:45;;;;;;;3.47;2.72;;;;;;;20.23;58.41;100938.31;4903820;28;119320;-70
2022/06/25 03:43:16;;;;;;;4.75;3.05;;;;;;;20.22;58.54;100933.91;4925328;28;123244;-70
2022/06/25 03:45:44;;;;;;;3.95;2.80;;;;;;;20.22;58.63;100937.44;4908399;28;123072;-69
2022/06/25 03:48:12;;;;;;;4.47;3.20;;;;;;;20.23;58.63;100938.31;4902906;28;118353;-69
2022/06/25 03:50:59;;;;;;;4.05;2.88;;;;;;;20.23;58.63;100951.75;4893780;28;119510;-69
2022/06/25 03:53:26;;;;;;;4.35;2.80;;;;;;;20.24;58.83;100942.69;4893562;28;124085;-69
2022/06/25 03:55:54;;;;;;;5.88;3.10;;;;;;;20.25;58.68;100944.41;4892442;28;122987;-69
2022/06/25 03:58:28;;;;;;;13.48;3.47;;;;;;;20.26;58.78;100946.09;4923224;28;119564;-69
2022/06/25 04:00:56;;;;;;;4.93;3.15;;;;;;;20.26;58.86;100950.63;4893935;28;118582;-69
2022/06/25 04:03:24;;;;;;;4.43;3.00;;;;;;;20.27;58.87;100950.50;4895195;28;123318;-69
2022/06/25 04:06:05;;;;;;;4.85;3.00;;;;;;;20.29;58.81;100956.59;4896731;28;126522;-69
2022/06/25 04:08:45;;;;;;;6.45;3.78;;;;;;;20.31;59.10;100948.41;4906558;28;118792;-69
2022/06/25 04:11:15;;;;;;;5.45;3.60;;;;;;;20.33;59.07;100944.59;4895553;28;119328;-69
2022/06/25 04:13:51;;;;;;;6.05;3.50;;;;;;;20.35;59.17;100949.84;4889964;28;123270;-68
2022/06/25 04:16:21;;;;;;;7.85;3.90;;;;;;;20.37;59.10;100948.72;4919734;28;122831;-69
2022/06/25 04:18:50;;;;;;;6.53;4.03;;;;;;;20.41;59.14;100952.00;4921891;28;119521;-69
2022/06/25 04:21:20;;;;;;;5.25;3.97;;;;;;;20.45;59.27;100949.91;4895819;28;119101;-69
2022/06/25 04:23:47;;;;;;;4.90;3.90;;;;;;;20.47;59.36;100945.25;4908883;28;123813;-69
2022/06/25 04:26:17;;;;;;;4.93;3.78;;;;;;;20.50;59.47;100953.06;4903618;28;123319;-69
2022/06/25 04:31:38;;;;;;;4.75;4.13;;;;;;;20.58;59.42;100959.50;4903305;28;118070;-70
2022/06/25 04:34:11;;;;;;;5.15;4.10;;;;;;;20.65;59.38;100969.78;4909109;28;123414;-69
2022/06/25 04:36:39;;;;;;;5.32;4.22;;;;;;;20.70;59.51;100963.03;4908359;28;123076;-69
2022/06/25 04:39:14;;;;;;;4.30;3.90;;;;;;;20.77;59.41;100972.25;4904517;28;119082;-69
2022/06/25 04:41:41;;;;;;;6.40;4.10;;;;;;;20.85;59.68;100973.44;4903532;28;118659;-69
2022/06/25 04:44:16;;;;;;;5.57;3.65;;;;;;;20.93;59.35;100970.94;4905328;28;123303;-69
2022/06/25 04:46:44;;;;;;;5.43;3.92;;;;;;;21.02;59.46;100970.16;4922539;28;123307;-68
2022/06/25 04:49:15;;;;;;;6.30;4.07;;;;;;;21.12;59.78;100975.59;4907694;28;118170;-68
2022/06/25 04:51:44;;;;;;;5.43;3.63;;;;;;;21.24;59.70;100974.50;4905924;28;118251;-68
2022/06/25 04:54:11;;;;;;;5.20;3.67;;;;;;;21.38;59.61;100975.97;4922086;28;123215;-68
2022/06/25 04:56:42;;;;;;;5.63;3.80;;;;;;;21.51;59.47;100982.00;4919023;28;122982;-68
2022/06/25 04:59:10;;;;;;;9.82;4.00;;;;;;;21.64;59.18;100983.59;4922035;28;118378;-69
2022/06/25 05:01:51;;;;;;;5.07;3.60;;;;;;;21.73;58.98;100990.84;4900425;28;119420;-69
2022/06/25 05:04:24;;;;;;;4.70;3.53;;;;;;;21.81;58.57;100993.69;4896835;28;126650;-69
2022/06/25 05:06:52;;;;;;;4.45;3.28;;;;;;;21.85;58.43;100995.16;4922324;28;123128;-69
2022/06/25 05:09:19;;;;;;;4.00;3.40;;;;;;;21.90;58.11;100992.88;4900677;28;119356;-69
2022/06/25 05:11:47;;;;;;;4.75;3.63;;;;;;;21.93;58.05;100997.16;4900034;28;119454;-69
2022/06/25 05:14:15;;;;;;;5.20;3.75;;;;;;;21.95;58.08;100998.72;4906529;28;123201;-69
2022/06/25 05:16:46;;;;;;;4.65;3.55;;;;;;;21.99;57.87;101006.53;4902088;28;123268;-69
2022/06/25 05:19:13;;;;;;;4.97;3.53;;;;;;;22.02;57.84;101007.09;4898102;28;120254;-69
2022/06/25 05:21:43;;;;;;;4.78;3.58;;;;;;;22.07;57.93;101009.38;4905575;28;117494;-69
2022/06/25 05:24:10;;;;;;;5.80;3.40;;;;;;;22.13;57.84;101008.81;4908313;28;123271;-69
2022/06/25 05:26:38;;;;;;;4.97;3.28;;;;;;;22.18;57.71;101006.53;4898335;28;122771;-69
2022/06/25 05:29:05;;;;;;;4.10;2.97;;;;;;;22.23;57.71;100998.88;4920446;28;118547;-70
2022/06/25 05:31:32;;;;;;;3.83;2.95;;;;;;;22.28;57.63;101002.06;4901947;28;119120;-70
2022/06/25 05:34:00;;;;;;;4.30;3.10;;;;;;;22.32;57.46;100997.19;4920744;28;123834;-70
2022/06/25 05:36:28;;;;;;;6.15;2.90;;;;;;;22.35;57.37;101013.97;4904320;28;122760;-70
2022/06/25 05:38:55;;;;;;;5.13;2.78;;;;;;;22.40;57.26;101010.00;4897036;28;119088;-69
2022/06/25 05:41:22;;;;;;;7.95;2.47;;;;;;;22.44;57.15;101006.03;4894612;28;118301;-70
2022/06/25 05:43:49;;;;;;;5.38;2.63;;;;;;;22.46;57.03;101006.72;4897661;28;124037;-69
2022/06/25 05:46:17;;;;;;;3.72;2.58;;;;;;;22.50;56.94;101016.25;4900220;28;124366;-69
2022/06/25 05:48:44;;;;;;;4.95;2.75;;;;;;;22.51;57.03;101012.56;4898319;28;119552;-69
2022/06/25 05:51:11;;;;;;;3.47;2.42;;;;;;;22.55;56.91;101020.22;4902155;28;118735;-67
2022/06/25 05:53:44;;;;;;;6.13;2.72;;;;;;;22.60;56.81;101017.06;4893824;28;123878;-67
2022/06/25 05:56:11;;;;;;;2.83;2.20;;;;;;;22.64;56.69;101023.94;4895507;28;124310;-66
2022/06/25 05:58:38;;;;;;;3.72;2.50;;;;;;;22.68;56.67;101019.94;4897174;28;120268;-67
2022/06/25 06:01:05;;;;;;;4.25;2.53;;;;;;;22.73;56.49;101033.88;4894390;28;120191;-67
2022/06/25 06:03:32;;;;;;;5.25;2.67;;;;;;;22.76;56.32;101026.47;4902801;28;124742;-67
2022/06/25 06:06:01;;;;;;;4.45;2.17;;;;;;;22.79;56.30;101027.00;4897857;28;123799;-67
2022/06/25 06:08:28;;;;;;;3.28;2.17;;;;;;;22.85;56.74;101028.28;4897755;28;120378;-66
2022/06/25 06:10:55;;;;;;;6.25;2.50;;;;;;;22.93;56.42;101034.66;4902245;28;119043;-66
2022/06/25 06:13:22;;;;;;;3.40;2.55;;;;;;;23.02;56.13;101027.56;4905982;28;125193;-67
2022/06/25 06:15:49;;;;;;;2.83;2.10;;;;;;;23.10;55.97;101034.97;4906716;28;123671;-67
2022/06/25 06:18:17;;;;;;;4.00;2.00;;;;;;;23.17;55.93;101040.63;4892818;28;119641;-66
2022/06/25 06:20:44;;;;;;;3.40;2.00;;;;;;;23.27;55.66;101038.75;4899171;28;118794;-69
2022/06/25 06:23:11;;;;;;;3.10;1.90;;;;;;;23.35;55.83;101038.84;4900383;28;124200;-68
2022/06/25 06:25:38;;;;;;;4.22;1.90;;;;;;;23.45;55.27;101050.50;4898136;28;124514;-69
2022/06/25 06:28:05;;;;;;;2.97;1.80;;;;;;;23.51;55.00;101044.50;4900982;28;118290;-67
2022/06/25 06:30:32;;;;;;;4.22;1.80;;;;;;;23.62;55.10;101045.28;4899336;28;118727;-67
2022/06/25 06:33:04;;;;;;;3.78;2.03;;;;;;;23.73;54.82;101047.78;4897840;28;124048;-67
2022/06/25 06:35:31;;;;;;;5.15;2.05;;;;;;;23.84;54.79;101055.75;4902053;28;123811;-67
2022/06/25 06:37:59;;;;;;;2.90;1.70;;;;;;;23.99;54.59;101049.84;4898515;28;119811;-67
2022/06/25 06:40:26;;;;;;;2.38;1.80;;;;;;;24.14;54.69;101051.00;4893693;28;118442;-67
2022/06/25 06:42:55;;;;;;;2.83;1.80;;;;;;;24.31;54.09;101056.59;4888155;28;124148;-67
2022/06/25 06:45:23;;;;;;;4.00;1.80;;;;;;;24.46;53.94;101049.66;4889050;28;124186;-67
2022/06/25 06:47:50;;;;;;;4.57;2.15;;;;;;;24.62;53.81;101049.84;4892514;28;120591;-67
2022/06/25 06:50:17;;;;;;;2.03;1.50;;;;;;;24.79;53.56;101044.53;4904758;28;120011;-67
2022/06/25 06:52:44;;;;;;;3.20;1.75;;;;;;;24.98;53.55;101055.19;4894356;28;125044;-67
2022/06/25 06:55:11;;;;;;;5.55;1.90;;;;;;;25.13;52.86;101043.75;4900883;28;124809;-68
2022/06/25 06:57:38;;;;;;;3.95;1.90;;;;;;;25.29;52.88;101052.03;4899506;28;119673;-67
2022/06/25 07:00:12;;;;;;;2.70;1.70;;;;;;;25.43;52.63;101048.75;4898134;28;119349;-67
2022/06/25 07:02:39;;;;;;;3.53;1.58;;;;;;;25.58;52.01;101050.81;4896099;28;124517;-67
2022/06/25 07:05:07;;;;;;;3.58;1.70;;;;;;;25.74;52.43;101056.34;4896944;28;123831;-67
2022/06/25 07:07:34;;;;;;;4.57;1.67;;;;;;;25.89;50.99;101047.56;4893879;28;119197;-67
2022/06/25 07:10:05;;;;;;;5.25;2.03;;;;;;;25.90;50.80;101054.69;4889265;28;117795;-67
2022/06/25 07:12:33;;;;;;;3.58;1.83;;;;;;;25.91;51.02;101056.41;4888659;28;124098;-67
2022/06/25 07:15:00;;;;;;;2.45;1.73;;;;;;;25.96;51.31;101054.09;4905528;28;124646;-67
2022/06/25 07:17:27;;;;;;;4.70;1.77;;;;;;;26.03;50.98;101057.81;4901702;28;119160;-67
2022/06/25 07:19:54;;;;;;;4.40;1.83;;;;;;;26.12;51.02;101054.09;4906648;28;119156;-67
2022/06/25 07:22:21;;;;;;;2.67;1.77;;;;;;;26.21;50.78;101058.53;4898453;28;123940;-68
2022/06/25 07:24:48;;;;;;;3.08;1.42;;;;;;;26.28;50.95;101063.34;4896231;28;123968;-67
2022/06/25 07:27:15;;;;;;;3.25;1.73;;;;;;;26.30;49.89;101062.13;4901507;28;120112;-67
2022/06/25 07:29:42;;;;;;;3.05;1.40;;;;;;;26.25;49.64;101066.38;4896004;28;119242;-69
2022/06/25 07:32:10;;;;;;;4.32;1.63;;;;;;;26.16;49.42;101077.22;4900683;28;123677;-68
2022/06/25 07:34:38;;;;;;;4.95;1.60;;;;;;;26.14;49.45;101072.94;4897222;28;124270;-68
2022/06/25 07:37:05;;;;;;;4.15;1.75;;;;;;;26.17;49.28;101062.63;4897486;28;120721;-68
2022/06/25 07:39:32;;;;;;;1.90;1.25;;;;;;;26.21;49.40;101074.84;4905286;28;119031;-68
2022/06/25 07:41:59;;;;;;;2.65;1.38;;;;;;;26.30;49.71;101066.72;4904539;28;124462;-68
2022/06/25 07:44:27;;;;;;;3.58;1.60;;;;;;;26.42;49.45;101065.38;4932303;28;123879;-68
2022/06/25 07:46:54;;;;;;;4.45;1.58;;;;;;;26.51;48.79;101069.81;4905591;28;120209;-68
2022/06/25 07:49:21;;;;;;;1.75;1.30;;;;;;;26.55;48.89;101076.59;4908743;28;119286;-68
2022/06/25 07:52:00;;;;;;;3.63;1.30;;;;;;;26.53;48.75;101065.06;4902144;28;124297;-68
2022/06/25 07:54:31;;;;;;;2.72;1.40;;;;;;;26.43;48.11;101067.09;4909524;28;123995;-68
2022/06/25 07:56:58;;;;;;;3.58;1.40;;;;;;;26.38;48.38;101069.44;4910118;28;119260;-68
2022/06/25 07:59:25;;;;;;;3.13;1.55;;;;;;;26.37;48.64;101067.72;4909987;28;118949;-67
2022/06/25 08:01:52;;;;;;;3.47;1.42;;;;;;;26.34;48.27;101073.53;4907314;28;123826;-67
2022/06/25 08:04:20;;;;;;;2.38;1.30;;;;;;;26.32;48.68;101064.69;4900194;28;123716;-67
2022/06/25 08:06:47;;;;;;;3.60;1.30;;;;;;;26.34;48.47;101068.09;4895663;28;119577;-67
2022/06/25 08:09:14;;;;;;;2.97;1.10;;;;;;;26.37;48.25;101067.72;4903202;28;118904;-67
2022/06/25 08:11:42;;;;;;;3.53;1.40;;;;;;;26.38;48.28;101064.03;4901542;28;124680;-67
2022/06/25 08:14:09;;;;;;;3.85;1.40;;;;;;;26.44;48.46;101068.78;4892836;28;124437;-67
2022/06/25 08:16:38;;;;;;;2.20;1.20;;;;;;;26.53;48.25;101065.06;4889854;28;119219;-67
2022/06/25 08:19:05;;;;;;;3.22;1.42;;;;;;;26.67;48.44;101073.56;4906732;28;118739;-67
2022/06/25 08:21:32;;;;;;;1.88;1.30;;;;;;;26.80;48.70;101073.91;4900576;28;124744;-67
2022/06/25 08:23:59;;;;;;;2.00;1.40;;;;;;;26.96;48.73;101067.66;4904689;28;123856;-67
2022/06/25 08:26:27;;;;;;;2.42;1.23;;;;;;;27.09;47.97;101072.56;4896405;28;120213;-67
2022/06/25 08:28:54;;;;;;;2.15;1.05;;;;;;;27.17;47.93;101086.13;4893515;28;119641;-67
2022/06/25 08:31:23;;;;;;;2.60;0.95;;;;;;;27.23;47.26;101080.00;4910361;28;125246;-67
2022/06/25 08:33:50;;;;;;;1.98;1.08;;;;;;;27.25;46.71;101080.72;4908988;28;124231;-67
2022/06/25 08:36:18;;;;;;;3.67;1.30;;;;;;;27.20;46.41;101085.81;4909521;28;119152;-68
2022/06/25 08:38:45;;;;;;;2.78;1.08;;;;;;;27.12;46.57;101083.06;4907856;28;119327;-67
2022/06/25 08:41:12;;;;;;;1.65;1.20;;;;;;;27.03;46.46;101086.81;4908623;28;124245;-67
2022/06/25 08:43:41;;;;;;;3.17;1.00;;;;;;;26.96;46.52;101092.94;4911093;28;123841;-67
2022/06/25 08:46:08;;;;;;;2.78;1.20;;;;;;;26.93;46.99;101096.00;4911463;28;120129;-67
2022/06/25 08:48:37;;;;;;;2.88;1.20;;;;;;;26.95;46.82;101088.53;4907747;28;118836;-67
2022/06/25 08:51:04;;;;;;;2.72;1.50;;;;;;;26.95;46.40;101091.25;4925135;28;123192;-67
2022/06/25 08:53:33;;;;;;;3.30;1.52;;;;;;;26.91;46.20;101081.72;4909978;28;123770;-67
2022/06/25 08:56:02;;;;;;;3.45;1.52;;;;;;;26.88;46.91;101098.41;4910229;28;119616;-68
2022/06/25 08:58:29;;;;;;;2.85;1.60;;;;;;;26.89;46.93;101093.81;4910049;28;119434;-67
2022/06/25 09:00:57;;;;;;;3.60;1.77;;;;;;;26.87;46.64;101096.69;4908702;28;124317;-67
2022/06/25 09:03:25;;;;;;;2.20;1.30;;;;;;;26.84;46.81;101097.00;4908612;28;123629;-68
2022/06/25 09:05:52;;;;;;;4.13;1.80;;;;;;;26.78;46.81;101087.66;4897060;28;119355;-68
2022/06/25 09:08:20;;;;;;;4.03;1.80;;;;;;;26.72;46.39;101092.94;4907585;28;119025;-69
2022/06/25 09:10:54;;;;;;;2.70;1.92;;;;;;;26.62;46.57;101095.84;4909972;28;123863;-68
2022/06/25 09:13:25;;;;;;;3.67;1.65;;;;;;;26.53;46.73;101094.09;4908105;28;123930;-68
2022/06/25 09:15:54;;;;;;;2.17;1.70;;;;;;;26.42;46.49;101092.53;4902258;28;120258;-69
2022/06/25 09:18:21;;;;;;;3.63;1.83;;;;;;;26.34;46.77;101089.81;4897531;28;120629;-69
2022/06/25 09:21:00;;;;;;;2.00;1.52;;;;;;;26.25;46.85;101102.50;4909283;28;124795;-70
2022/06/25 09:23:58;;;;;;;2.25;1.60;;;;;;;26.17;46.88;101106.06;4910166;28;123550;-69
2022/06/25 09:26:26;;;;;;;3.60;1.80;;;;;;;26.09;47.14;101081.59;4896702;28;119329;-70
2022/06/25 09:28:53;;;;;;;2.47;1.50;;;;;;;26.05;47.46;101085.66;4894229;28;119676;-69
2022/06/25 09:31:34;;;;;;;4.70;1.90;;;;;;;26.07;48.25;101088.19;4889201;28;124289;-69
2022/06/25 09:34:03;;;;;;;3.03;1.70;;;;;;;26.10;47.58;101094.16;4902512;28;123786;-69
2022/06/25 09:36:31;;;;;;;3.22;1.90;;;;;;;26.09;47.80;101092.47;4901298;28;119594;-69
2022/06/25 09:38:58;;;;;;;3.13;2.00;;;;;;;26.08;48.03;101090.75;4900829;28;119184;-69
2022/06/25 09:41:25;;;;;;;2.40;1.83;;;;;;;26.09;48.35;101097.91;4908434;28;123077;-69
2022/06/25 09:43:52;;;;;;;2.20;1.50;;;;;;;26.14;47.97;101087.38;4898597;28;123839;-69
2022/06/25 09:46:19;;;;;;;4.05;1.90;;;;;;;26.17;48.18;101089.75;4906321;28;119994;-69
2022/06/25 09:48:47;;;;;;;4.60;1.65;;;;;;;26.19;47.79;101093.16;4906909;28;119270;-67
2022/06/25 09:51:18;;;;;;;2.58;1.80;;;;;;;26.25;47.85;101090.81;4907912;28;123832;-67
2022/06/25 09:53:58;;;;;;;4.63;1.85;;;;;;;26.27;48.23;101088.78;4909040;28;123720;-68
2022/06/25 09:56:31;;;;;;;2.70;1.80;;;;;;;26.28;47.56;101101.34;4907373;28;119236;-68
2022/06/25 09:58:59;;;;;;;3.45;1.80;;;;;;;26.26;47.54;101097.91;4907921;28;118056;-68
2022/06/25 10:01:30;;;;;;;4.78;1.75;;;;;;;26.22;47.61;101098.28;4908691;28;122986;-67
2022/06/25 10:04:01;;;;;;;2.83;1.50;;;;;;;26.18;48.03;101096.91;4903656;28;124613;-70
2022/06/25 10:06:34;;;;;;;3.00;1.42;;;;;;;26.13;47.68;101093.84;4898673;28;120278;-70
2022/06/25 10:09:03;;;;;;;3.08;1.50;;;;;;;26.08;47.90;101101.63;4905435;28;120261;-68
2022/06/25 10:11:34;;;;;;;2.72;1.80;;;;;;;26.02;47.69;101099.56;4907040;28;124010;-68
2022/06/25 10:14:02;;;;;;;5.80;1.88;;;;;;;25.96;47.97;101097.50;4906961;28;123947;-68
2022/06/25 10:16:30;;;;;;;3.38;1.52;;;;;;;25.91;48.02;101099.81;4900895;28;119163;-68
2022/06/25 10:18:57;;;;;;;3.20;1.70;;;;;;;25.88;48.42;101101.00;4900700;28;118930;-68
2022/06/25 10:21:25;;;;;;;3.55;1.58;;;;;;;25.86;48.35;101099.47;4893588;28;124313;-68
2022/06/25 10:23:55;;;;;;;4.22;1.70;;;;;;;25.83;48.59;101104.19;4907889;28;123192;-68
2022/06/25 10:26:24;;;;;;;4.00;1.88;;;;;;;25.82;48.59;101102.50;4898817;28;119961;-68
2022/06/25 10:28:51;;;;;;;2.63;1.88;;;;;;;25.82;48.79;101102.50;4923290;28;118159;-68
2022/06/25 10:31:19;;;;;;;4.30;1.70;;;;;;;25.84;48.74;101105.03;4911842;28;124720;-68
2022/06/25 10:33:59;;;;;;;2.67;1.80;;;;;;;25.88;48.92;101108.28;4909109;28;123703;-68
2022/06/25 10:36:49;;;;;;;4.75;1.77;;;;;;;25.91;48.76;101105.25;4909528;28;119295;-68
2022/06/25 10:39:22;;;;;;;3.85;1.80;;;;;;;25.94;48.87;101096.81;4909137;28;119794;-68
2022/06/25 10:45:04;;;;;;;3.78;1.65;;;;;;;25.96;48.90;101098.34;4896438;28;124335;-68
2022/06/25 10:47:47;;;;;;;3.83;1.80;;;;;;;25.96;48.67;101100.22;4891655;28;119118;-68
2022/06/25 10:50:20;;;;;;;3.40;1.70;;;;;;;25.98;48.57;101106.34;4892831;28;117939;-68
2022/06/25 10:53:03;;;;;;;5.85;1.85;;;;;;;25.98;48.67;101100.91;4897370;28;126207;-68
2022/06/25 10:55:49;;;;;;;4.35;1.70;;;;;;;25.98;48.99;101095.47;4897990;28;123867;-68
2022/06/25 10:58:23;;;;;;;3.35;1.52;;;;;;;26.03;48.94;101098.53;4894751;28;120199;-68
2022/06/25 11:01:01;;;;;;;3.03;1.83;;;;;;;26.12;48.90;101107.56;4893647;28;120061;-67
2022/06/25 11:03:28;;;;;;;2.72;1.70;;;;;;;26.20;48.92;101105.75;4892326;28;123959;-68
2022/06/25 11:05:57;;;;;;;4.18;1.85;;;;;;;26.30;49.11;101093.88;4896417;28;123703;-68
2022/06/25 11:08:34;;;;;;;5.35;1.90;;;;;;;26.44;49.17;101090.50;4890957;28;119405;-67
2022/06/25 11:11:03;;;;;;;3.85;1.50;;;;;;;26.61;48.98;101089.53;4895925;28;118785;-67
2022/06/25 11:13:30;;;;;;;2.67;1.65;;;;;;;26.77;49.15;101085.16;4898117;28;124446;-67
2022/06/25 11:15:58;;;;;;;4.03;1.42;;;;;;;26.92;48.30;101088.88;4901623;28;124728;-67
2022/06/25 11:18:25;;;;;;;5.47;1.80;;;;;;;26.98;48.15;101073.75;4901967;28;119764;-67
2022/06/25 11:20:52;;;;;;;2.95;1.50;;;;;;;27.03;47.63;101078.66;4906984;28;117935;-68
2022/06/25 11:23:19;;;;;;;5.60;1.40;;;;;;;27.03;47.21;101070.50;4898333;28;124044;-68
2022/06/25 11:28:57;;;;;;;2.38;1.40;;;;;;;27.04;46.92;101074.94;4870105;28;119380;-68
2022/06/25 11:31:24;;;;;;;3.08;1.60;;;;;;;27.05;47.05;101082.06;4895608;28;118841;-68
2022/06/25 11:33:54;;;;;;;2.75;1.60;;;;;;;27.07;47.26;101082.72;4893813;28;124392;-68
2022/06/25 11:36:21;;;;;;;2.63;1.30;;;;;;;27.13;46.74;101082.06;4897187;28;124505;-67
2022/06/25 11:38:54;;;;;;;3.00;1.52;;;;;;;27.17;46.90;101086.13;4892712;28;120462;-68
2022/06/25 11:41:27;;;;;;;2.85;1.42;;;;;;;27.21;47.05;101092.94;4900076;28;118932;-68